sensor_id;sensor_type;location;lat;lon;timestamp;temperature;humidity
16229;DHT22;8222;51.462;12.630;2022-10-19T00:03:37;12.00;99.90
16229;DHT22;8222;51.462;12.630;2022-10-19T00:06:32;12.00;99.90
16229;DHT22;8222;51.462;12.630;2022-10-19T00:09:03;11.90;99.90
16229;DHT22;8222;51.462;12.630;2022-10-19T00:11:34;11.90;99.90
16229;DHT22;8222;51.462;12.630;2022-10-19T00:14:00;12.00;99.90
16229;DHT22;8222;51.462;12.630;2022-10-19T00:16:29;12.00;99.90
16229;DHT22;8222;51.462;12.630;2022-10-19T00:18:56;12.00;99.90
16229;DHT22;8222;51.462;12.630;2022-10-19T00:21:22;12.00;99.90
16229;DHT22;8222;51.462;12.630;2022-10-19T00:23:52;12.00;99.90
16229;DHT22;8222;51.462;12.630;2022-10-19T00:26:19;12.00;99.90
16229;DHT22;8222;51.462;12.630;2022-10-19T00:28:45;12.10;99.90
16229;DHT22;8222;51.462;12.630;2022-10-19T00:31:15;12.00;99.90
16229;DHT22;8222;51.462;12.630;2022-10-19T00:33:42;12.00;99.90
16229;DHT22;8222;51.462;12.630;2022-10-19T00:36:28;11.90;99.90
16229;DHT22;8222;51.462;12.630;2022-10-19T00:38:55;11.90;99.90
16229;DHT22;8222;51.462;12.630;2022-10-19T00:41:23;11.80;99.90
16229;DHT22;8222;51.462;12.630;2022-10-19T00:46:38;11.80;99.90
16229;DHT22;8222;51.462;12.630;2022-10-19T00:51:38;11.70;99.90
16229;DHT22;8222;51.462;12.630;2022-10-19T00:54:05;11.70;99.90
16229;DHT22;8222;51.462;12.630;2022-10-19T00:56:32;11.80;99.90
16229;DHT22;8222;51.462;12.630;2022-10-19T00:59:02;11.80;99.90
16229;DHT22;8222;51.462;12.630;2022-10-19T01:01:32;11.80;99.90
16229;DHT22;8222;51.462;12.630;2022-10-19T01:03:59;11.70;99.90
16229;DHT22;8222;51.462;12.630;2022-10-19T01:06:26;11.70;99.90
16229;DHT22;8222;51.462;12.630;2022-10-19T01:08:51;11.80;99.90
16229;DHT22;8222;51.462;12.630;2022-10-19T01:16:37;11.80;99.90
16229;DHT22;8222;51.462;12.630;2022-10-19T01:36:08;12.10;99.90
16229;DHT22;8222;51.462;12.630;2022-10-19T01:38:57;12.10;99.90
16229;DHT22;8222;51.462;12.630;2022-10-19T01:41:47;12.10;99.90
16229;DHT22;8222;51.462;12.630;2022-10-19T01:47:18;12.30;99.90
16229;DHT22;8222;51.462;12.630;2022-10-19T01:49:59;12.40;99.90
16229;DHT22;8222;51.462;12.630;2022-10-19T01:52:31;12.40;99.90
16229;DHT22;8222;51.462;12.630;2022-10-19T01:54:59;12.50;99.90
16229;DHT22;8222;51.462;12.630;2022-10-19T01:57:32;12.50;99.90
16229;DHT22;8222;51.462;12.630;2022-10-19T01:59:58;12.60;99.90
16229;DHT22;8222;51.462;12.630;2022-10-19T02:02:34;12.60;99.90
16229;DHT22;8222;51.462;12.630;2022-10-19T02:05:02;12.50;99.90
16229;DHT22;8222;51.462;12.630;2022-10-19T02:07:30;12.50;99.90
16229;DHT22;8222;51.462;12.630;2022-10-19T02:09:59;12.40;99.90
16229;DHT22;8222;51.462;12.630;2022-10-19T02:12:27;12.30;99.90
16229;DHT22;8222;51.462;12.630;2022-10-19T02:14:57;12.30;99.90
16229;DHT22;8222;51.462;12.630;2022-10-19T02:17:30;12.30;99.90
16229;DHT22;8222;51.462;12.630;2022-10-19T02:19:58;12.40;99.90
16229;DHT22;8222;51.462;12.630;2022-10-19T02:22:25;12.40;99.90
16229;DHT22;8222;51.462;12.630;2022-10-19T02:24:50;12.50;99.90
16229;DHT22;8222;51.462;12.630;2022-10-19T02:27:16;12.50;99.90
16229;DHT22;8222;51.462;12.630;2022-10-19T02:29:43;12.60;99.90
16229;DHT22;8222;51.462;12.630;2022-10-19T02:32:11;12.60;99.90
16229;DHT22;8222;51.462;12.630;2022-10-19T02:34:39;12.60;99.90
16229;DHT22;8222;51.462;12.630;2022-10-19T02:37:05;12.60;99.90
16229;DHT22;8222;51.462;12.630;2022-10-19T02:39:31;12.50;99.90
16229;DHT22;8222;51.462;12.630;2022-10-19T02:42:06;12.50;99.90
16229;DHT22;8222;51.462;12.630;2022-10-19T02:44:57;12.40;99.90
16229;DHT22;8222;51.462;12.630;2022-10-19T02:47:25;12.50;99.90
16229;DHT22;8222;51.462;12.630;2022-10-19T02:49:51;12.60;99.90
16229;DHT22;8222;51.462;12.630;2022-10-19T02:52:18;12.60;99.90
16229;DHT22;8222;51.462;12.630;2022-10-19T02:54:44;12.50;99.90
16229;DHT22;8222;51.462;12.630;2022-10-19T02:57:22;12.50;99.90
16229;DHT22;8222;51.462;12.630;2022-10-19T02:59:48;12.60;99.90
16229;DHT22;8222;51.462;12.630;2022-10-19T03:02:19;12.60;99.90
16229;DHT22;8222;51.462;12.630;2022-10-19T03:04:46;12.50;99.90
16229;DHT22;8222;51.462;12.630;2022-10-19T03:07:14;12.50;99.90
16229;DHT22;8222;51.462;12.630;2022-10-19T03:09:41;12.50;99.90
16229;DHT22;8222;51.462;12.630;2022-10-19T03:12:07;12.50;99.90
16229;DHT22;8222;51.462;12.630;2022-10-19T03:14:32;12.50;99.90
16229;DHT22;8222;51.462;12.630;2022-10-19T03:16:58;12.50;99.90
16229;DHT22;8222;51.462;12.630;2022-10-19T03:19:24;12.50;99.90
16229;DHT22;8222;51.462;12.630;2022-10-19T03:21:50;12.50;99.90
16229;DHT22;8222;51.462;12.630;2022-10-19T03:24:17;12.50;99.90
16229;DHT22;8222;51.462;12.630;2022-10-19T03:26:43;12.50;99.90
16229;DHT22;8222;51.462;12.630;2022-10-19T03:29:10;12.40;99.90
16229;DHT22;8222;51.462;12.630;2022-10-19T03:31:36;12.40;99.90
16229;DHT22;8222;51.462;12.630;2022-10-19T03:34:02;12.30;99.90
16229;DHT22;8222;51.462;12.630;2022-10-19T03:36:33;12.30;99.90
16229;DHT22;8222;51.462;12.630;2022-10-19T03:39:02;12.30;99.90
16229;DHT22;8222;51.462;12.630;2022-10-19T03:41:31;12.30;99.90
16229;DHT22;8222;51.462;12.630;2022-10-19T03:44:03;12.20;99.90
16229;DHT22;8222;51.462;12.630;2022-10-19T03:46:29;12.30;99.90
16229;DHT22;8222;51.462;12.630;2022-10-19T03:48:57;12.40;99.90
16229;DHT22;8222;51.462;12.630;2022-10-19T03:51:27;12.40;99.90
16229;DHT22;8222;51.462;12.630;2022-10-19T03:53:55;12.50;99.90
16229;DHT22;8222;51.462;12.630;2022-10-19T03:56:23;12.50;99.90
16229;DHT22;8222;51.462;12.630;2022-10-19T03:58:50;12.50;99.90
16229;DHT22;8222;51.462;12.630;2022-10-19T04:01:28;12.50;99.90
16229;DHT22;8222;51.462;12.630;2022-10-19T04:03:55;12.50;99.90
16229;DHT22;8222;51.462;12.630;2022-10-19T04:06:24;12.50;99.90
16229;DHT22;8222;51.462;12.630;2022-10-19T04:08:50;12.50;99.90
16229;DHT22;8222;51.462;12.630;2022-10-19T04:11:21;12.50;99.90
16229;DHT22;8222;51.462;12.630;2022-10-19T04:13:50;12.40;99.90
16229;DHT22;8222;51.462;12.630;2022-10-19T04:16:16;12.40;99.90
16229;DHT22;8222;51.462;12.630;2022-10-19T04:18:46;12.30;99.90
16229;DHT22;8222;51.462;12.630;2022-10-19T04:21:38;12.30;99.90
16229;DHT22;8222;51.462;12.630;2022-10-19T04:24:15;12.20;99.90
16229;DHT22;8222;51.462;12.630;2022-10-19T04:26:45;12.10;99.90
16229;DHT22;8222;51.462;12.630;2022-10-19T04:29:14;12.10;99.90
16229;DHT22;8222;51.462;12.630;2022-10-19T04:31:40;12.10;99.90
16229;DHT22;8222;51.462;12.630;2022-10-19T04:34:06;11.90;99.90
16229;DHT22;8222;51.462;12.630;2022-10-19T04:36:34;11.90;99.90
16229;DHT22;8222;51.462;12.630;2022-10-19T04:38:59;11.80;99.90
16229;DHT22;8222;51.462;12.630;2022-10-19T04:41:25;11.80;99.90
16229;DHT22;8222;51.462;12.630;2022-10-19T04:43:57;11.80;99.90
16229;DHT22;8222;51.462;12.630;2022-10-19T04:46:27;11.80;99.90
16229;DHT22;8222;51.462;12.630;2022-10-19T04:48:56;11.90;99.90
16229;DHT22;8222;51.462;12.630;2022-10-19T04:51:22;11.80;99.90
16229;DHT22;8222;51.462;12.630;2022-10-19T04:53:48;11.90;99.90
16229;DHT22;8222;51.462;12.630;2022-10-19T04:56:19;11.90;99.90
16229;DHT22;8222;51.462;12.630;2022-10-19T04:58:46;12.00;99.90
16229;DHT22;8222;51.462;12.630;2022-10-19T05:01:17;11.90;99.90
16229;DHT22;8222;51.462;12.630;2022-10-19T05:03:45;12.10;99.90
16229;DHT22;8222;51.462;12.630;2022-10-19T05:06:14;12.10;99.90
16229;DHT22;8222;51.462;12.630;2022-10-19T05:08:40;12.10;99.90
16229;DHT22;8222;51.462;12.630;2022-10-19T05:11:13;12.00;99.90
16229;DHT22;8222;51.462;12.630;2022-10-19T05:13:40;12.10;99.90
16229;DHT22;8222;51.462;12.630;2022-10-19T05:16:07;12.00;99.90
16229;DHT22;8222;51.462;12.630;2022-10-19T05:18:33;12.00;99.90
16229;DHT22;8222;51.462;12.630;2022-10-19T05:21:06;12.10;99.90
16229;DHT22;8222;51.462;12.630;2022-10-19T05:23:32;12.20;99.90
16229;DHT22;8222;51.462;12.630;2022-10-19T05:26:07;12.20;99.90
16229;DHT22;8222;51.462;12.630;2022-10-19T05:28:33;12.30;99.90
16229;DHT22;8222;51.462;12.630;2022-10-19T05:31:17;12.20;99.90
16229;DHT22;8222;51.462;12.630;2022-10-19T05:33:45;12.20;99.90
16229;DHT22;8222;51.462;12.630;2022-10-19T05:36:23;12.30;99.90
16229;DHT22;8222;51.462;12.630;2022-10-19T05:38:54;12.40;99.90
16229;DHT22;8222;51.462;12.630;2022-10-19T05:41:21;12.40;99.90
16229;DHT22;8222;51.462;12.630;2022-10-19T05:43:52;12.40;99.90
16229;DHT22;8222;51.462;12.630;2022-10-19T05:46:18;12.40;99.90
16229;DHT22;8222;51.462;12.630;2022-10-19T05:48:50;12.40;99.90
16229;DHT22;8222;51.462;12.630;2022-10-19T05:51:18;12.30;99.90
16229;DHT22;8222;51.462;12.630;2022-10-19T05:53:44;12.40;99.90
16229;DHT22;8222;51.462;12.630;2022-10-19T05:56:19;12.40;99.90
16229;DHT22;8222;51.462;12.630;2022-10-19T05:58:45;12.50;99.90
16229;DHT22;8222;51.462;12.630;2022-10-19T06:01:11;12.50;99.90
16229;DHT22;8222;51.462;12.630;2022-10-19T06:03:40;12.50;99.90
16229;DHT22;8222;51.462;12.630;2022-10-19T06:06:07;12.50;99.90
16229;DHT22;8222;51.462;12.630;2022-10-19T06:08:34;12.50;99.90
16229;DHT22;8222;51.462;12.630;2022-10-19T06:11:19;12.60;99.90
16229;DHT22;8222;51.462;12.630;2022-10-19T06:13:46;12.60;99.90
16229;DHT22;8222;51.462;12.630;2022-10-19T06:16:13;12.60;99.90
16229;DHT22;8222;51.462;12.630;2022-10-19T06:18:40;12.60;99.90
16229;DHT22;8222;51.462;12.630;2022-10-19T06:21:10;12.60;99.90
16229;DHT22;8222;51.462;12.630;2022-10-19T06:23:40;12.70;99.90
16229;DHT22;8222;51.462;12.630;2022-10-19T06:26:10;12.60;99.90
16229;DHT22;8222;51.462;12.630;2022-10-19T06:28:38;12.60;99.90
16229;DHT22;8222;51.462;12.630;2022-10-19T06:31:07;12.60;99.90
16229;DHT22;8222;51.462;12.630;2022-10-19T06:33:35;12.60;99.90
16229;DHT22;8222;51.462;12.630;2022-10-19T06:36:11;12.70;99.90
16229;DHT22;8222;51.462;12.630;2022-10-19T06:38:42;12.70;99.90
16229;DHT22;8222;51.462;12.630;2022-10-19T06:41:08;12.70;99.90
16229;DHT22;8222;51.462;12.630;2022-10-19T06:43:35;12.80;99.90
16229;DHT22;8222;51.462;12.630;2022-10-19T06:46:11;12.80;99.90
16229;DHT22;8222;51.462;12.630;2022-10-19T06:48:41;12.80;99.90
16229;DHT22;8222;51.462;12.630;2022-10-19T06:51:07;12.90;99.90
16229;DHT22;8222;51.462;12.630;2022-10-19T06:53:35;12.90;99.90
16229;DHT22;8222;51.462;12.630;2022-10-19T06:56:04;12.90;99.90
16229;DHT22;8222;51.462;12.630;2022-10-19T06:58:34;13.00;99.90
16229;DHT22;8222;51.462;12.630;2022-10-19T07:01:00;13.00;99.90
16229;DHT22;8222;51.462;12.630;2022-10-19T07:03:29;13.00;99.90
16229;DHT22;8222;51.462;12.630;2022-10-19T07:05:56;13.00;99.90
16229;DHT22;8222;51.462;12.630;2022-10-19T07:08:23;13.10;99.90
16229;DHT22;8222;51.462;12.630;2022-10-19T07:10:51;13.20;99.90
16229;DHT22;8222;51.462;12.630;2022-10-19T07:13:17;13.20;99.90
16229;DHT22;8222;51.462;12.630;2022-10-19T07:15:42;13.20;99.90
16229;DHT22;8222;51.462;12.630;2022-10-19T07:18:10;13.20;99.90
16229;DHT22;8222;51.462;12.630;2022-10-19T07:20:39;13.30;99.90
16229;DHT22;8222;51.462;12.630;2022-10-19T07:23:05;13.30;99.90
16229;DHT22;8222;51.462;12.630;2022-10-19T07:25:33;13.40;99.90
16229;DHT22;8222;51.462;12.630;2022-10-19T07:28:00;13.30;99.90
16229;DHT22;8222;51.462;12.630;2022-10-19T07:30:25;13.40;99.90
16229;DHT22;8222;51.462;12.630;2022-10-19T07:32:51;13.40;99.90
16229;DHT22;8222;51.462;12.630;2022-10-19T07:35:17;13.40;99.90
16229;DHT22;8222;51.462;12.630;2022-10-19T07:37:42;13.50;99.90
16229;DHT22;8222;51.462;12.630;2022-10-19T07:40:10;13.60;99.90
16229;DHT22;8222;51.462;12.630;2022-10-19T07:42:38;13.70;99.90
16229;DHT22;8222;51.462;12.630;2022-10-19T07:45:04;13.80;99.90
16229;DHT22;8222;51.462;12.630;2022-10-19T07:47:33;13.80;99.90
16229;DHT22;8222;51.462;12.630;2022-10-19T07:49:59;13.80;99.90
16229;DHT22;8222;51.462;12.630;2022-10-19T07:52:26;13.80;99.90
16229;DHT22;8222;51.462;12.630;2022-10-19T07:54:52;13.70;99.90
16229;DHT22;8222;51.462;12.630;2022-10-19T07:57:17;13.80;99.90
16229;DHT22;8222;51.462;12.630;2022-10-19T07:59:47;13.80;99.90
16229;DHT22;8222;51.462;12.630;2022-10-19T08:02:16;13.80;99.90
16229;DHT22;8222;51.462;12.630;2022-10-19T08:04:45;13.90;99.90
16229;DHT22;8222;51.462;12.630;2022-10-19T08:07:10;13.90;99.90
16229;DHT22;8222;51.462;12.630;2022-10-19T08:09:36;14.00;99.90
16229;DHT22;8222;51.462;12.630;2022-10-19T08:12:03;14.10;99.90
16229;DHT22;8222;51.462;12.630;2022-10-19T08:14:31;14.20;99.90
16229;DHT22;8222;51.462;12.630;2022-10-19T08:16:56;14.20;99.90
16229;DHT22;8222;51.462;12.630;2022-10-19T08:19:22;14.30;99.90
16229;DHT22;8222;51.462;12.630;2022-10-19T08:21:49;14.40;99.90
16229;DHT22;8222;51.462;12.630;2022-10-19T08:24:17;14.50;99.90
16229;DHT22;8222;51.462;12.630;2022-10-19T08:26:43;14.50;99.90
16229;DHT22;8222;51.462;12.630;2022-10-19T08:29:14;14.60;99.90
16229;DHT22;8222;51.462;12.630;2022-10-19T08:31:41;14.70;99.90
16229;DHT22;8222;51.462;12.630;2022-10-19T08:34:07;14.60;99.90
16229;DHT22;8222;51.462;12.630;2022-10-19T08:36:33;14.70;99.90
16229;DHT22;8222;51.462;12.630;2022-10-19T08:39:06;14.80;99.90
16229;DHT22;8222;51.462;12.630;2022-10-19T08:49:35;15.30;99.90
16229;DHT22;8222;51.462;12.630;2022-10-19T08:52:05;15.30;99.90
16229;DHT22;8222;51.462;12.630;2022-10-19T08:57:35;15.20;99.90
16229;DHT22;8222;51.462;12.630;2022-10-19T09:00:34;15.20;99.90
16229;DHT22;8222;51.462;12.630;2022-10-19T09:03:26;15.10;99.90
16229;DHT22;8222;51.462;12.630;2022-10-19T09:08:50;15.10;99.90
16229;DHT22;8222;51.462;12.630;2022-10-19T09:11:21;15.30;99.90
16229;DHT22;8222;51.462;12.630;2022-10-19T09:13:50;15.30;99.90
16229;DHT22;8222;51.462;12.630;2022-10-19T09:16:19;15.30;99.90
16229;DHT22;8222;51.462;12.630;2022-10-19T09:18:45;15.40;99.90
16229;DHT22;8222;51.462;12.630;2022-10-19T09:21:22;15.30;99.90
16229;DHT22;8222;51.462;12.630;2022-10-19T09:24:03;15.20;99.90
16229;DHT22;8222;51.462;12.630;2022-10-19T09:26:52;15.10;99.90
16229;DHT22;8222;51.462;12.630;2022-10-19T09:32:00;15.60;99.90
16229;DHT22;8222;51.462;12.630;2022-10-19T09:34:35;15.70;99.90
16229;DHT22;8222;51.462;12.630;2022-10-19T09:37:02;15.80;99.90
16229;DHT22;8222;51.462;12.630;2022-10-19T09:39:29;15.60;99.90
16229;DHT22;8222;51.462;12.630;2022-10-19T09:42:12;15.40;99.90
16229;DHT22;8222;51.462;12.630;2022-10-19T09:44:40;15.40;99.90
16229;DHT22;8222;51.462;12.630;2022-10-19T09:47:34;15.40;99.90
16229;DHT22;8222;51.462;12.630;2022-10-19T09:50:16;15.40;99.90
16229;DHT22;8222;51.462;12.630;2022-10-19T09:52:45;15.30;99.90
16229;DHT22;8222;51.462;12.630;2022-10-19T09:57:48;15.40;99.90
16229;DHT22;8222;51.462;12.630;2022-10-19T10:00:24;15.30;99.90
16229;DHT22;8222;51.462;12.630;2022-10-19T10:02:52;15.30;99.90
16229;DHT22;8222;51.462;12.630;2022-10-19T10:05:19;15.30;99.90
16229;DHT22;8222;51.462;12.630;2022-10-19T10:07:48;15.40;99.90
16229;DHT22;8222;51.462;12.630;2022-10-19T10:10:22;15.40;99.90
16229;DHT22;8222;51.462;12.630;2022-10-19T10:12:50;15.60;99.90
16229;DHT22;8222;51.462;12.630;2022-10-19T10:15:21;15.60;99.90
16229;DHT22;8222;51.462;12.630;2022-10-19T10:17:48;15.60;99.90
16229;DHT22;8222;51.462;12.630;2022-10-19T10:23:01;15.50;99.90
16229;DHT22;8222;51.462;12.630;2022-10-19T10:25:32;15.30;99.90
16229;DHT22;8222;51.462;12.630;2022-10-19T10:28:17;16.00;99.90
16229;DHT22;8222;51.462;12.630;2022-10-19T10:30:45;15.40;99.90
16229;DHT22;8222;51.462;12.630;2022-10-19T10:33:16;15.50;99.90
16229;DHT22;8222;51.462;12.630;2022-10-19T10:35:47;15.50;99.90
16229;DHT22;8222;51.462;12.630;2022-10-19T10:38:21;15.50;99.90
16229;DHT22;8222;51.462;12.630;2022-10-19T10:40:55;15.40;99.90
16229;DHT22;8222;51.462;12.630;2022-10-19T10:43:35;15.20;99.90
16229;DHT22;8222;51.462;12.630;2022-10-19T10:46:12;15.00;99.90
16229;DHT22;8222;51.462;12.630;2022-10-19T10:48:44;14.80;99.90
16229;DHT22;8222;51.462;12.630;2022-10-19T10:54:22;14.80;99.90
16229;DHT22;8222;51.462;12.630;2022-10-19T10:57:14;15.00;99.90
16229;DHT22;8222;51.462;12.630;2022-10-19T11:00:05;15.20;99.90
16229;DHT22;8222;51.462;12.630;2022-10-19T11:03:15;15.30;99.90
16229;DHT22;8222;51.462;12.630;2022-10-19T11:06:06;15.40;99.90
16229;DHT22;8222;51.462;12.630;2022-10-19T11:08:50;15.60;99.90
16229;DHT22;8222;51.462;12.630;2022-10-19T11:11:23;15.60;99.90
16229;DHT22;8222;51.462;12.630;2022-10-19T11:16:44;15.80;99.90
16229;DHT22;8222;51.462;12.630;2022-10-19T11:19:28;15.70;99.90
16229;DHT22;8222;51.462;12.630;2022-10-19T11:22:30;15.70;99.90
16229;DHT22;8222;51.462;12.630;2022-10-19T11:25:32;15.60;99.90
16229;DHT22;8222;51.462;12.630;2022-10-19T11:30:44;15.40;99.90
16229;DHT22;8222;51.462;12.630;2022-10-19T11:35:54;15.50;99.90
16229;DHT22;8222;51.462;12.630;2022-10-19T11:47:13;15.30;99.90
16229;DHT22;8222;51.462;12.630;2022-10-19T11:52:51;15.10;99.90
16229;DHT22;8222;51.462;12.630;2022-10-19T12:00:37;15.20;99.90
16229;DHT22;8222;51.462;12.630;2022-10-19T12:12:06;15.40;99.90
16229;DHT22;8222;51.462;12.630;2022-10-19T12:14:38;16.10;99.90
16229;DHT22;8222;51.462;12.630;2022-10-19T12:17:11;15.30;99.90
16229;DHT22;8222;51.462;12.630;2022-10-19T12:19:43;15.30;99.90
16229;DHT22;8222;51.462;12.630;2022-10-19T12:22:16;15.30;99.90
16229;DHT22;8222;51.462;12.630;2022-10-19T12:24:45;15.10;99.90
16229;DHT22;8222;51.462;12.630;2022-10-19T12:27:16;15.00;99.90
16229;DHT22;8222;51.462;12.630;2022-10-19T12:29:46;15.00;99.90
16229;DHT22;8222;51.462;12.630;2022-10-19T12:32:15;15.00;99.90
16229;DHT22;8222;51.462;12.630;2022-10-19T12:34:58;15.10;99.90
16229;DHT22;8222;51.462;12.630;2022-10-19T12:37:56;15.10;99.90
16229;DHT22;8222;51.462;12.630;2022-10-19T12:40:31;15.00;99.90
16229;DHT22;8222;51.462;12.630;2022-10-19T12:46:46;15.00;99.90
16229;DHT22;8222;51.462;12.630;2022-10-19T12:51:51;15.10;99.90
16229;DHT22;8222;51.462;12.630;2022-10-19T12:54:22;15.10;99.90
16229;DHT22;8222;51.462;12.630;2022-10-19T12:56:50;15.20;99.90
16229;DHT22;8222;51.462;12.630;2022-10-19T12:59:35;15.30;99.90
16229;DHT22;8222;51.462;12.630;2022-10-19T13:02:04;15.30;99.90
16229;DHT22;8222;51.462;12.630;2022-10-19T13:04:32;15.20;99.90
16229;DHT22;8222;51.462;12.630;2022-10-19T13:07:05;15.30;99.90
16229;DHT22;8222;51.462;12.630;2022-10-19T13:17:38;15.20;99.90
16229;DHT22;8222;51.462;12.630;2022-10-19T13:25:35;15.20;99.90
16229;DHT22;8222;51.462;12.630;2022-10-19T13:33:41;15.50;99.90
16229;DHT22;8222;51.462;12.630;2022-10-19T13:36:08;15.70;99.90
16229;DHT22;8222;51.462;12.630;2022-10-19T13:41:26;15.70;99.90
16229;DHT22;8222;51.462;12.630;2022-10-19T13:44:02;15.70;99.90
16229;DHT22;8222;51.462;12.630;2022-10-19T13:52:14;15.50;99.90
16229;DHT22;8222;51.462;12.630;2022-10-19T14:10:40;15.70;99.90
16229;DHT22;8222;51.462;12.630;2022-10-19T14:13:12;15.90;99.90
16229;DHT22;8222;51.462;12.630;2022-10-19T14:15:39;16.00;99.90
16229;DHT22;8222;51.462;12.630;2022-10-19T14:18:22;16.10;99.90
16229;DHT22;8222;51.462;12.630;2022-10-19T14:21:03;16.00;99.90
16229;DHT22;8222;51.462;12.630;2022-10-19T14:23:38;16.00;99.90
16229;DHT22;8222;51.462;12.630;2022-10-19T14:26:15;16.00;99.90
16229;DHT22;8222;51.462;12.630;2022-10-19T14:28:42;16.10;99.90
16229;DHT22;8222;51.462;12.630;2022-10-19T14:31:16;16.10;99.90
16229;DHT22;8222;51.462;12.630;2022-10-19T14:33:50;16.10;99.90
16229;DHT22;8222;51.462;12.630;2022-10-19T14:36:21;16.00;99.90
16229;DHT22;8222;51.462;12.630;2022-10-19T14:38:50;16.00;99.90
16229;DHT22;8222;51.462;12.630;2022-10-19T14:41:30;16.00;99.90
16229;DHT22;8222;51.462;12.630;2022-10-19T14:43:57;16.00;99.90
16229;DHT22;8222;51.462;12.630;2022-10-19T14:46:27;15.90;99.90
16229;DHT22;8222;51.462;12.630;2022-10-19T14:48:58;15.90;99.90
16229;DHT22;8222;51.462;12.630;2022-10-19T14:51:38;16.10;99.90
16229;DHT22;8222;51.462;12.630;2022-10-19T14:54:26;15.90;99.90
16229;DHT22;8222;51.462;12.630;2022-10-19T14:59:47;15.90;99.90
16229;DHT22;8222;51.462;12.630;2022-10-19T15:02:33;15.80;99.90
16229;DHT22;8222;51.462;12.630;2022-10-19T15:05:00;15.60;99.90
16229;DHT22;8222;51.462;12.630;2022-10-19T15:07:38;15.50;99.90
16229;DHT22;8222;51.462;12.630;2022-10-19T15:10:14;15.50;99.90
16229;DHT22;8222;51.462;12.630;2022-10-19T15:12:41;15.40;99.90
16229;DHT22;8222;51.462;12.630;2022-10-19T15:15:14;15.30;99.90
16229;DHT22;8222;51.462;12.630;2022-10-19T15:17:53;15.40;99.90
16229;DHT22;8222;51.462;12.630;2022-10-19T15:22:50;15.20;99.90
16229;DHT22;8222;51.462;12.630;2022-10-19T15:25:29;15.20;99.90
16229;DHT22;8222;51.462;12.630;2022-10-19T15:27:56;15.20;99.90
16229;DHT22;8222;51.462;12.630;2022-10-19T15:30:28;15.10;99.90
16229;DHT22;8222;51.462;12.630;2022-10-19T15:35:36;15.00;99.90
16229;DHT22;8222;51.462;12.630;2022-10-19T15:38:05;15.10;99.90
16229;DHT22;8222;51.462;12.630;2022-10-19T15:40:39;15.00;99.90
16229;DHT22;8222;51.462;12.630;2022-10-19T15:48:59;14.90;99.90
16229;DHT22;8222;51.462;12.630;2022-10-19T15:51:30;14.80;99.90
16229;DHT22;8222;51.462;12.630;2022-10-19T15:54:04;14.70;99.90
16229;DHT22;8222;51.462;12.630;2022-10-19T15:56:32;14.60;99.90
16229;DHT22;8222;51.462;12.630;2022-10-19T15:58:59;14.70;99.90
16229;DHT22;8222;51.462;12.630;2022-10-19T16:01:27;14.70;99.90
16229;DHT22;8222;51.462;12.630;2022-10-19T16:03:55;14.80;99.90
16229;DHT22;8222;51.462;12.630;2022-10-19T16:06:22;14.80;99.90
16229;DHT22;8222;51.462;12.630;2022-10-19T16:08:48;14.80;99.90
16229;DHT22;8222;51.462;12.630;2022-10-19T16:11:17;14.70;99.90
16229;DHT22;8222;51.462;12.630;2022-10-19T16:13:42;14.70;99.90
16229;DHT22;8222;51.462;12.630;2022-10-19T16:16:21;14.60;99.90
16229;DHT22;8222;51.462;12.630;2022-10-19T16:18:47;14.50;99.90
16229;DHT22;8222;51.462;12.630;2022-10-19T16:21:13;14.30;99.90
16229;DHT22;8222;51.462;12.630;2022-10-19T16:23:39;14.20;99.90
16229;DHT22;8222;51.462;12.630;2022-10-19T16:26:06;14.00;99.90
16229;DHT22;8222;51.462;12.630;2022-10-19T16:28:33;13.90;99.90
16229;DHT22;8222;51.462;12.630;2022-10-19T16:31:00;13.80;99.90
16229;DHT22;8222;51.462;12.630;2022-10-19T16:33:25;13.60;99.90
16229;DHT22;8222;51.462;12.630;2022-10-19T16:35:51;13.40;99.90
16229;DHT22;8222;51.462;12.630;2022-10-19T16:38:17;13.30;99.90
16229;DHT22;8222;51.462;12.630;2022-10-19T16:40:42;13.20;99.90
16229;DHT22;8222;51.462;12.630;2022-10-19T16:43:15;13.10;99.90
16229;DHT22;8222;51.462;12.630;2022-10-19T16:45:44;13.00;99.90
16229;DHT22;8222;51.462;12.630;2022-10-19T16:48:11;12.90;99.90
16229;DHT22;8222;51.462;12.630;2022-10-19T16:50:36;12.80;99.90
16229;DHT22;8222;51.462;12.630;2022-10-19T16:53:05;12.90;99.90
16229;DHT22;8222;51.462;12.630;2022-10-19T16:55:31;12.80;99.90
16229;DHT22;8222;51.462;12.630;2022-10-19T16:57:57;12.60;99.90
16229;DHT22;8222;51.462;12.630;2022-10-19T17:00:22;12.60;99.90
16229;DHT22;8222;51.462;12.630;2022-10-19T17:02:48;12.50;99.90
16229;DHT22;8222;51.462;12.630;2022-10-19T17:05:14;12.40;99.90
16229;DHT22;8222;51.462;12.630;2022-10-19T17:07:39;12.30;99.90
16229;DHT22;8222;51.462;12.630;2022-10-19T17:10:05;12.20;99.90
16229;DHT22;8222;51.462;12.630;2022-10-19T17:12:31;12.10;99.90
16229;DHT22;8222;51.462;12.630;2022-10-19T17:14:57;12.00;99.90
16229;DHT22;8222;51.462;12.630;2022-10-19T17:17:22;11.90;99.90
16229;DHT22;8222;51.462;12.630;2022-10-19T17:19:50;11.80;99.90
16229;DHT22;8222;51.462;12.630;2022-10-19T17:22:15;11.80;99.90
16229;DHT22;8222;51.462;12.630;2022-10-19T17:24:41;11.70;99.90
16229;DHT22;8222;51.462;12.630;2022-10-19T17:27:07;11.60;99.90
16229;DHT22;8222;51.462;12.630;2022-10-19T17:29:32;11.50;99.90
16229;DHT22;8222;51.462;12.630;2022-10-19T17:31:58;11.40;99.90
16229;DHT22;8222;51.462;12.630;2022-10-19T17:34:24;11.30;99.90
16229;DHT22;8222;51.462;12.630;2022-10-19T17:36:49;11.20;99.90
16229;DHT22;8222;51.462;12.630;2022-10-19T17:39:18;11.10;99.90
16229;DHT22;8222;51.462;12.630;2022-10-19T17:41:45;11.10;99.90
16229;DHT22;8222;51.462;12.630;2022-10-19T17:44:11;11.00;99.90
16229;DHT22;8222;51.462;12.630;2022-10-19T17:46:37;11.00;99.90
16229;DHT22;8222;51.462;12.630;2022-10-19T17:49:03;10.90;99.90
16229;DHT22;8222;51.462;12.630;2022-10-19T17:51:32;10.80;99.90
16229;DHT22;8222;51.462;12.630;2022-10-19T17:54:07;10.70;99.90
16229;DHT22;8222;51.462;12.630;2022-10-19T17:56:34;10.60;99.90
16229;DHT22;8222;51.462;12.630;2022-10-19T17:59:02;10.60;99.90
16229;DHT22;8222;51.462;12.630;2022-10-19T18:01:29;10.60;99.90
16229;DHT22;8222;51.462;12.630;2022-10-19T18:03:55;10.60;99.90
16229;DHT22;8222;51.462;12.630;2022-10-19T18:06:39;10.60;99.90
16229;DHT22;8222;51.462;12.630;2022-10-19T18:09:07;10.60;99.90
16229;DHT22;8222;51.462;12.630;2022-10-19T18:11:39;10.50;99.90
16229;DHT22;8222;51.462;12.630;2022-10-19T18:14:08;10.40;99.90
16229;DHT22;8222;51.462;12.630;2022-10-19T18:16:40;10.40;99.90
16229;DHT22;8222;51.462;12.630;2022-10-19T18:19:06;10.40;99.90
16229;DHT22;8222;51.462;12.630;2022-10-19T18:21:38;10.40;99.90
16229;DHT22;8222;51.462;12.630;2022-10-19T18:24:05;10.30;99.90
16229;DHT22;8222;51.462;12.630;2022-10-19T18:26:33;10.20;99.90